createdAt,value
2018-08-22T00:00:04.311Z,86.32
2018-08-22T00:02:33.542Z,86.96
2018-08-22T00:05:02.631Z,86.57
2018-08-22T00:07:31.667Z,86.99
2018-08-22T00:10:00.667Z,86.97
2018-08-22T00:12:31.655Z,86.76
2018-08-22T00:15:00.676Z,87.21
2018-08-22T00:17:43.496Z,87.14
2018-08-22T00:20:12.595Z,86.99
2018-08-22T00:22:41.852Z,87.43
2018-08-22T00:25:11.800Z,87.61
2018-08-22T00:27:41.257Z,87.31
2018-08-22T00:30:10.452Z,87.22
2018-08-22T00:32:39.553Z,87.70
2018-08-22T00:35:08.671Z,87.55
2018-08-22T00:37:37.771Z,87.77
2018-08-22T00:40:06.869Z,87.86
2018-08-22T00:42:35.856Z,87.92
2018-08-22T00:45:06.437Z,88.24
2018-08-22T00:47:35.657Z,87.93
2018-08-22T00:50:04.713Z,87.87
2018-08-22T00:52:33.854Z,88.22
2018-08-22T00:55:03.166Z,88.53
2018-08-22T00:57:32.340Z,88.38
2018-08-22T01:00:01.773Z,88.35
2018-08-22T01:02:30.716Z,88.42
2018-08-22T01:04:59.872Z,88.34
2018-08-22T01:07:28.933Z,88.69
2018-08-22T01:09:57.928Z,88.78
2018-08-22T01:12:27.167Z,88.78
2018-08-22T01:14:56.092Z,88.61
2018-08-22T01:17:25.162Z,88.84
2018-08-22T01:19:54.160Z,88.83
2018-08-22T01:22:23.112Z,88.95
2018-08-22T01:24:52.189Z,89.23
2018-08-22T01:27:22.550Z,89.08
2018-08-22T01:29:53.732Z,89.00
2018-08-22T01:32:23.089Z,89.09
2018-08-22T01:34:53.248Z,89.20
2018-08-22T01:37:22.225Z,89.07
2018-08-22T01:39:51.215Z,89.04
2018-08-22T01:42:20.254Z,89.19
2018-08-22T01:44:49.164Z,88.93
2018-08-22T01:47:18.257Z,88.99
2018-08-22T01:49:47.261Z,88.90
2018-08-22T01:52:16.193Z,89.01
2018-08-22T01:54:45.411Z,89.12
2018-08-22T01:57:14.371Z,89.19
2018-08-22T01:59:43.377Z,89.14
2018-08-22T02:02:12.240Z,88.53
2018-08-22T02:04:41.326Z,88.98
2018-08-22T02:07:10.266Z,88.73
2018-08-22T02:09:39.300Z,88.82
2018-08-22T02:12:08.184Z,89.00
2018-08-22T02:14:37.241Z,88.92
2018-08-22T02:17:06.303Z,88.95
2018-08-22T02:19:35.376Z,88.33
2018-08-22T02:22:04.230Z,88.70
2018-08-22T02:24:33.633Z,88.33
2018-08-22T02:27:02.592Z,88.55
2018-08-22T02:29:31.646Z,88.31
2018-08-22T02:32:00.681Z,88.43
2018-08-22T02:34:29.751Z,88.47
2018-08-22T02:36:58.816Z,88.72
2018-08-22T02:39:27.868Z,88.46
2018-08-22T02:41:56.769Z,88.75
2018-08-22T02:44:25.975Z,88.70
2018-08-22T02:46:55.009Z,88.50
2018-08-22T02:49:24.001Z,88.33
2018-08-22T02:51:52.946Z,88.52
2018-08-22T02:54:21.967Z,88.79
2018-08-22T02:56:51.030Z,88.45
2018-08-22T02:59:20.071Z,88.33
2018-08-22T03:01:49.160Z,88.55
2018-08-22T03:04:18.337Z,88.43
2018-08-22T03:06:47.190Z,88.23
2018-08-22T03:09:16.605Z,88.58
2018-08-22T03:11:45.521Z,88.65
2018-08-22T03:14:14.633Z,88.53
2018-08-22T03:16:43.652Z,88.38
2018-08-22T03:19:12.608Z,88.30
2018-08-22T03:21:41.511Z,88.61
2018-08-22T03:24:10.533Z,88.80
2018-08-22T03:26:39.577Z,88.80
2018-08-22T03:29:08.947Z,89.02
2018-08-22T03:31:37.802Z,88.98
2018-08-22T03:34:07.012Z,88.72
2018-08-22T03:36:35.984Z,88.74
2018-08-22T03:39:06.276Z,88.51
2018-08-22T03:41:35.264Z,88.76
2018-08-22T03:44:04.284Z,88.82
2018-08-22T03:46:33.376Z,88.75
2018-08-22T03:49:02.428Z,88.89
2018-08-22T03:51:31.394Z,88.62
2018-08-22T03:54:00.399Z,88.79
2018-08-22T03:56:29.612Z,89.15
2018-08-22T03:58:58.522Z,88.87
2018-08-22T04:01:27.531Z,88.93
2018-08-22T04:03:56.442Z,88.61
2018-08-22T04:06:25.611Z,88.93
2018-08-22T04:08:55.133Z,88.83
2018-08-22T04:11:24.349Z,88.77
2018-08-22T04:13:53.414Z,88.91
2018-08-22T04:16:22.530Z,89.03
2018-08-22T04:18:51.617Z,89.12
2018-08-22T04:21:20.685Z,88.99
2018-08-22T04:23:49.657Z,88.73
2018-08-22T04:26:22.395Z,88.99
2018-08-22T04:28:51.512Z,89.00
2018-08-22T04:31:20.571Z,89.13
2018-08-22T04:33:49.670Z,89.12
2018-08-22T04:36:18.741Z,89.26
2018-08-22T04:38:47.817Z,89.30
2018-08-22T04:41:16.953Z,89.50
2018-08-22T04:43:46.013Z,89.42
2018-08-22T04:46:15.145Z,89.42
2018-08-22T04:48:44.254Z,89.38
2018-08-22T04:51:13.275Z,89.61
2018-08-22T04:53:42.433Z,89.40
2018-08-22T04:56:11.498Z,89.89
2018-08-22T04:58:40.539Z,89.80
2018-08-22T05:01:09.483Z,89.37
2018-08-22T05:03:38.551Z,89.72
2018-08-22T05:06:07.638Z,88.99
2018-08-22T05:08:36.766Z,88.86
2018-08-22T05:11:05.951Z,89.14
2018-08-22T05:13:34.997Z,89.02
2018-08-22T05:16:03.988Z,88.50
2018-08-22T05:18:33.015Z,88.82
2018-08-22T05:21:02.213Z,88.27
2018-08-22T05:23:31.364Z,88.53
2018-08-22T05:26:01.578Z,87.60
2018-08-22T05:28:30.607Z,87.70
2018-08-22T05:30:59.915Z,88.29
2018-08-22T05:33:28.934Z,87.46
2018-08-22T05:35:57.962Z,87.61
2018-08-22T05:38:26.976Z,87.64
2018-08-22T05:40:56.062Z,87.73
2018-08-22T05:43:25.383Z,87.42
2018-08-22T05:45:54.513Z,87.14
2018-08-22T05:48:23.662Z,87.69
2018-08-22T05:50:52.815Z,87.67
2018-08-22T05:53:21.928Z,87.46
2018-08-22T05:55:50.966Z,87.23
2018-08-22T05:58:20.091Z,86.84
2018-08-22T06:00:49.842Z,86.57
2018-08-22T06:03:18.972Z,86.61
2018-08-22T06:05:48.017Z,86.06
2018-08-22T06:08:17.265Z,86.06
2018-08-22T06:10:46.303Z,85.71
2018-08-22T06:13:15.329Z,85.63
2018-08-22T06:15:44.351Z,84.55
2018-08-22T06:18:13.490Z,84.73
2018-08-22T06:20:42.820Z,84.23
2018-08-22T06:23:11.950Z,84.11
2018-08-22T06:25:41.095Z,83.41
2018-08-22T06:28:10.181Z,82.72
2018-08-22T06:30:39.457Z,81.81
2018-08-22T06:33:08.794Z,80.71
2018-08-22T06:35:38.071Z,80.10
2018-08-22T06:38:07.210Z,78.63
2018-08-22T06:40:36.266Z,77.31
2018-08-22T06:43:05.290Z,75.83
2018-08-22T06:45:34.825Z,74.11
2018-08-22T06:48:04.036Z,73.48
2018-08-22T06:50:33.158Z,72.86
2018-08-22T06:53:02.762Z,72.48
2018-08-22T06:55:31.952Z,71.57
2018-08-22T06:58:01.085Z,70.84
2018-08-22T07:00:30.201Z,70.08
2018-08-22T07:02:59.319Z,69.69
2018-08-22T07:05:28.428Z,69.48
2018-08-22T07:07:58.187Z,69.47
2018-08-22T07:10:27.450Z,68.94
2018-08-22T07:12:56.601Z,68.67
2018-08-22T07:15:25.969Z,67.28
2018-08-22T07:17:55.488Z,66.78
2018-08-22T07:20:24.652Z,67.08
2018-08-22T07:22:54.289Z,67.19
2018-08-22T07:25:23.413Z,66.83
2018-08-22T07:27:52.513Z,66.64
2018-08-22T07:30:22.206Z,66.62
2018-08-22T07:32:51.334Z,66.75
2018-08-22T07:35:20.413Z,66.65
2018-08-22T07:37:49.613Z,66.39
2018-08-22T07:40:19.144Z,66.53
2018-08-22T07:42:48.258Z,66.13
2018-08-22T07:45:18.345Z,66.66
2018-08-22T07:47:47.875Z,65.53
2018-08-22T07:50:16.982Z,65.68
2018-08-22T07:52:51.348Z,65.05
2018-08-22T07:55:20.675Z,64.52
2018-08-22T07:57:52.990Z,64.78
2018-08-22T08:00:22.133Z,64.41
2018-08-22T08:02:51.466Z,63.80
2018-08-22T08:05:21.164Z,63.44
2018-08-22T08:07:50.267Z,63.91
2018-08-22T08:10:24.401Z,63.67
2018-08-22T08:12:53.871Z,63.36
2018-08-22T08:15:23.383Z,62.88
2018-08-22T08:17:52.371Z,62.68
2018-08-22T08:20:21.583Z,62.18
2018-08-22T08:22:50.773Z,61.08
2018-08-22T08:25:19.993Z,61.05
2018-08-22T08:27:49.071Z,60.42
2018-08-22T08:30:18.678Z,60.15
2018-08-22T08:32:47.798Z,59.62
2018-08-22T08:35:16.955Z,59.72
2018-08-22T08:37:46.158Z,58.90
2018-08-22T08:40:15.262Z,58.83
2018-08-22T08:42:46.080Z,58.60
2018-08-22T08:45:15.189Z,58.37
2018-08-22T08:47:44.476Z,58.15
2018-08-22T08:50:13.864Z,57.05
2018-08-22T08:52:43.031Z,57.48
2018-08-22T08:55:12.081Z,55.62
2018-08-22T08:57:41.225Z,55.28
2018-08-22T09:00:10.473Z,55.71
2018-08-22T09:02:39.544Z,55.44
2018-08-22T09:05:08.812Z,55.34
2018-08-22T09:07:37.891Z,54.85
2018-08-22T09:10:07.409Z,54.52
2018-08-22T09:12:39.486Z,53.68
2018-08-22T09:15:08.630Z,53.26
2018-08-22T09:17:37.757Z,52.74
2018-08-22T09:20:07.658Z,52.98
2018-08-22T09:22:37.010Z,52.18
2018-08-22T09:25:06.199Z,52.33
2018-08-22T09:27:38.817Z,51.97
2018-08-22T09:30:07.960Z,51.70
2018-08-22T09:32:37.018Z,51.36
2018-08-22T09:35:06.153Z,49.84
2018-08-22T09:37:44.171Z,48.64
2018-08-22T09:40:13.515Z,48.19
2018-08-22T09:42:42.614Z,48.37
2018-08-22T09:45:11.790Z,48.05
2018-08-22T09:47:40.890Z,47.63
2018-08-22T09:50:10.205Z,46.54
2018-08-22T09:52:39.450Z,46.23
2018-08-22T09:55:08.695Z,44.92
2018-08-22T09:57:37.786Z,43.29
2018-08-22T10:00:07.533Z,43.30
2018-08-22T10:02:36.681Z,42.14
2018-08-22T10:05:05.915Z,41.20
2018-08-22T10:07:35.052Z,41.73
2018-08-22T10:10:04.449Z,40.87
2018-08-22T10:12:34.357Z,40.21
2018-08-22T10:15:03.771Z,40.38
2018-08-22T10:17:32.901Z,40.81
2018-08-22T10:20:01.979Z,39.25
2018-08-22T10:22:31.021Z,38.72
2018-08-22T10:25:00.841Z,39.58
2018-08-22T10:27:30.022Z,40.16
2018-08-22T10:29:59.184Z,40.48
2018-08-22T10:32:28.279Z,41.17
2018-08-22T10:34:57.483Z,39.88
2018-08-22T10:37:26.715Z,39.44
2018-08-22T10:39:55.886Z,39.83
2018-08-22T10:42:25.113Z,39.49
2018-08-22T10:44:54.302Z,39.05
2018-08-22T10:47:23.498Z,36.77
2018-08-22T10:49:52.708Z,37.64
2018-08-22T10:52:21.751Z,37.73
2018-08-22T10:54:50.937Z,38.37
2018-08-22T10:57:19.996Z,37.37
2018-08-22T10:59:49.070Z,36.76
2018-08-22T11:02:18.233Z,36.96
2018-08-22T11:04:47.321Z,35.89
2018-08-22T11:07:17.101Z,36.99
2018-08-22T11:09:46.226Z,36.54
2018-08-22T11:12:15.301Z,35.51
2018-08-22T11:14:44.535Z,36.17
2018-08-22T11:17:13.675Z,35.31
2018-08-22T11:19:55.753Z,35.56
2018-08-22T11:22:35.695Z,33.16
2018-08-22T11:25:15.564Z,33.91
2018-08-22T11:27:58.733Z,33.51
2018-08-22T11:30:38.613Z,34.05
2018-08-22T11:33:18.579Z,32.79
2018-08-22T11:35:46.306Z,34.45
2018-08-22T11:38:15.904Z,34.53
2018-08-22T11:40:45.120Z,33.33
2018-08-22T11:43:14.249Z,33.26
2018-08-22T11:45:43.661Z,33.69
2018-08-22T11:48:20.521Z,33.48
2018-08-22T11:50:49.617Z,33.66
2018-08-22T11:53:18.808Z,34.21
2018-08-22T11:55:48.385Z,32.96
2018-08-22T11:58:25.333Z,32.92
2018-08-22T12:00:54.433Z,33.10
2018-08-22T12:03:23.466Z,32.86
2018-08-22T12:05:52.570Z,31.77
2018-08-22T12:08:33.601Z,31.24
2018-08-22T12:11:02.860Z,29.30
2018-08-22T12:13:32.313Z,30.59
2018-08-22T12:16:01.806Z,30.81
2018-08-22T12:18:30.987Z,30.98
2018-08-22T12:21:00.425Z,29.47
2018-08-22T12:23:29.567Z,28.96
2018-08-22T12:25:58.769Z,30.18
2018-08-22T12:28:32.225Z,27.10
2018-08-22T12:31:01.486Z,28.88
2018-08-22T12:33:30.705Z,28.25
2018-08-22T12:35:59.705Z,28.13
2018-08-22T12:38:28.881Z,28.49
2018-08-22T12:40:58.031Z,27.32
2018-08-22T12:43:27.576Z,27.97
2018-08-22T12:45:56.847Z,28.26
2018-08-22T12:48:40.093Z,28.85
2018-08-22T12:51:09.534Z,28.24
2018-08-22T12:53:38.697Z,29.15
2018-08-22T12:56:08.243Z,28.58
2018-08-22T12:58:45.589Z,29.79
2018-08-22T13:01:14.851Z,29.06
2018-08-22T13:03:44.157Z,28.88
2018-08-22T13:06:13.477Z,29.47
2018-08-22T13:08:50.447Z,30.74
2018-08-22T13:11:19.938Z,26.53
2018-08-22T13:13:49.059Z,23.37
2018-08-22T13:16:18.134Z,23.57
2018-08-22T13:19:02.525Z,24.81
2018-08-22T13:21:32.040Z,24.69
2018-08-22T13:24:01.309Z,21.15
2018-08-22T13:26:30.334Z,20.87
2018-08-22T13:29:42.888Z,20.19
2018-08-22T13:32:12.133Z,21.73
2018-08-22T13:34:41.217Z,23.05
2018-08-22T13:37:10.251Z,24.50
2018-08-22T13:39:47.717Z,23.99
2018-08-22T13:42:17.011Z,20.81
2018-08-22T13:44:46.082Z,20.61
2018-08-22T13:47:15.273Z,20.62
2018-08-22T13:49:45.287Z,18.13
2018-08-22T13:52:14.447Z,18.37
2018-08-22T13:54:43.960Z,16.16
2018-08-22T13:57:13.103Z,17.84
2018-08-22T13:59:45.412Z,18.61
2018-08-22T14:02:14.482Z,18.70
2018-08-22T14:04:43.489Z,17.59
2018-08-22T14:07:12.653Z,16.27
2018-08-22T14:09:49.509Z,15.79
2018-08-22T14:12:18.510Z,15.08
2018-08-22T14:14:47.670Z,15.38
2018-08-22T14:17:16.739Z,15.21
2018-08-22T14:19:55.380Z,17.50
2018-08-22T14:22:24.476Z,18.98
2018-08-22T14:24:53.505Z,23.28
2018-08-22T14:27:22.633Z,24.10
2018-08-22T14:30:05.870Z,22.09
2018-08-22T14:32:35.467Z,20.53
2018-08-22T14:35:04.756Z,18.27
2018-08-22T14:37:33.780Z,20.38
2018-08-22T14:40:05.006Z,21.25
2018-08-22T14:42:34.245Z,19.15
2018-08-22T14:45:05.021Z,19.21
2018-08-22T14:47:34.142Z,18.98
2018-08-22T14:50:07.422Z,18.18
2018-08-22T14:52:37.463Z,17.89
2018-08-22T14:55:06.650Z,17.54
2018-08-22T14:57:35.670Z,16.11
2018-08-22T15:00:04.838Z,15.63
2018-08-22T15:02:34.110Z,15.58
2018-08-22T15:05:03.198Z,16.74
2018-08-22T15:07:32.216Z,18.50
2018-08-22T15:10:13.970Z,18.51
2018-08-22T15:12:43.190Z,18.35
2018-08-22T15:15:12.333Z,19.17
2018-08-22T15:17:45.921Z,18.92
2018-08-22T15:20:15.091Z,20.98
2018-08-22T15:22:44.360Z,21.63
2018-08-22T15:25:14.261Z,20.86
2018-08-22T15:27:43.857Z,21.33
2018-08-22T15:30:13.061Z,19.85
2018-08-22T15:32:42.140Z,20.17
2018-08-22T15:35:11.352Z,20.60
2018-08-22T15:37:40.776Z,21.23
2018-08-22T15:40:10.298Z,22.04
2018-08-22T15:42:39.276Z,22.18
2018-08-22T15:45:08.429Z,22.40
2018-08-22T15:47:37.670Z,21.00
2018-08-22T15:50:07.457Z,21.78
2018-08-22T15:52:36.622Z,21.70
2018-08-22T15:55:13.810Z,24.02
2018-08-22T15:57:54.980Z,23.32
2018-08-22T16:00:45.533Z,22.60
2018-08-22T16:03:14.771Z,23.44
2018-08-22T16:05:44.963Z,23.64
2018-08-22T16:08:15.206Z,23.81
2018-08-22T16:10:44.517Z,23.00
2018-08-22T16:13:18.906Z,23.23
2018-08-22T16:15:49.845Z,24.70
2018-08-22T16:18:19.087Z,23.75
2018-08-22T16:20:54.491Z,24.45
2018-08-22T16:23:26.633Z,24.40
2018-08-22T16:25:57.204Z,25.49
2018-08-22T16:28:27.209Z,25.52
2018-08-22T16:30:58.073Z,25.35
2018-08-22T16:33:27.286Z,26.01
2018-08-22T16:35:56.459Z,26.96
2018-08-22T16:38:25.853Z,26.66
2018-08-22T16:40:55.117Z,26.10
2018-08-22T16:43:40.282Z,26.67
2018-08-22T16:46:11.386Z,26.96
2018-08-22T16:48:41.272Z,27.75
2018-08-22T16:51:10.382Z,28.05
2018-08-22T16:53:39.833Z,28.35
2018-08-22T16:56:09.114Z,28.18
2018-08-22T16:58:38.211Z,28.56
2018-08-22T17:01:07.287Z,29.94
2018-08-22T17:03:36.388Z,30.34
2018-08-22T17:06:09.604Z,30.86
2018-08-22T17:08:38.660Z,32.28
2018-08-22T17:11:08.702Z,32.01
2018-08-22T17:13:45.696Z,33.47
2018-08-22T17:16:14.870Z,34.82
2018-08-22T17:18:44.092Z,35.32
2018-08-22T17:21:13.274Z,35.44
2018-08-22T17:23:42.970Z,37.24
2018-08-22T17:26:13.174Z,38.15
2018-08-22T17:28:44.085Z,38.84
2018-08-22T17:31:14.917Z,38.88
2018-08-22T17:33:48.555Z,38.84
2018-08-22T17:36:18.228Z,40.28
2018-08-22T17:38:48.920Z,40.22
2018-08-22T17:41:20.134Z,40.76
2018-08-22T17:44:13.149Z,40.71
2018-08-22T17:46:51.347Z,42.52
2018-08-22T17:49:20.939Z,42.73
2018-08-22T17:52:04.812Z,43.96
2018-08-22T17:54:34.081Z,43.80
2018-08-22T17:57:12.856Z,45.02
2018-08-22T17:59:43.024Z,45.63
2018-08-22T18:02:12.716Z,45.45
2018-08-22T18:04:56.798Z,46.36
2018-08-22T18:07:25.902Z,47.04
2018-08-22T18:09:55.787Z,46.75
2018-08-22T18:12:25.950Z,47.80
2018-08-22T18:14:59.267Z,47.88
2018-08-22T18:17:28.537Z,48.61
2018-08-22T18:19:57.768Z,48.74
2018-08-22T18:22:31.378Z,48.80
2018-08-22T18:25:00.566Z,49.32
2018-08-22T18:27:29.877Z,49.85
2018-08-22T18:29:58.937Z,50.63
2018-08-22T18:32:31.300Z,51.30
2018-08-22T18:35:07.348Z,52.03
2018-08-22T18:37:36.548Z,51.67
2018-08-22T18:40:12.225Z,52.65
2018-08-22T18:42:41.645Z,52.35
2018-08-22T18:45:10.856Z,52.58
2018-08-22T18:47:40.190Z,53.05
2018-08-22T18:50:09.287Z,53.71
2018-08-22T18:52:38.415Z,53.99
2018-08-22T18:55:07.553Z,54.41
2018-08-22T18:57:36.709Z,54.55
2018-08-22T19:00:08.530Z,55.08
2018-08-22T19:02:37.727Z,55.20
2018-08-22T19:05:40.685Z,54.82
2018-08-22T19:08:13.201Z,55.18
2018-08-22T19:10:43.572Z,55.49
2018-08-22T19:13:24.004Z,55.92
2018-08-22T19:15:55.352Z,56.59
2018-08-22T19:18:24.737Z,56.88
2018-08-22T19:20:56.013Z,56.57
2018-08-22T19:23:25.370Z,57.15
2018-08-22T19:25:55.108Z,58.12
2018-08-22T19:28:24.353Z,58.13
2018-08-22T19:30:53.503Z,58.29
2018-08-22T19:33:23.997Z,58.59
2018-08-22T19:35:53.222Z,59.53
2018-08-22T19:38:25.521Z,60.42
2018-08-22T19:40:54.722Z,61.04
2018-08-22T19:43:24.082Z,60.82
2018-08-22T19:45:53.327Z,61.26
2018-08-22T19:48:22.710Z,61.52
2018-08-22T19:50:52.122Z,61.89
2018-08-22T19:53:21.880Z,62.40
2018-08-22T19:55:51.132Z,62.06
2018-08-22T19:58:28.470Z,61.55
2018-08-22T20:00:59.081Z,62.60
2018-08-22T20:03:32.315Z,62.41
2018-08-22T20:06:01.478Z,62.73
2018-08-22T20:08:37.473Z,61.96
2018-08-22T20:11:07.309Z,63.02
2018-08-22T20:13:49.680Z,63.35
2018-08-22T20:16:20.154Z,62.68
2018-08-22T20:18:50.943Z,62.85
2018-08-22T20:21:26.917Z,63.32
2018-08-22T20:23:58.084Z,64.60
2018-08-22T20:26:27.965Z,64.13
2018-08-22T20:28:58.311Z,65.61
2018-08-22T20:31:27.546Z,66.12
2018-08-22T20:34:08.184Z,67.09
2018-08-22T20:36:37.397Z,67.32
2018-08-22T20:39:10.645Z,67.25
2018-08-22T20:41:41.364Z,68.82
2018-08-22T20:44:19.339Z,68.94
2018-08-22T20:46:49.775Z,69.88
2018-08-22T20:49:20.265Z,69.94
2018-08-22T20:51:50.101Z,69.88
2018-08-22T20:54:23.109Z,69.65
2018-08-22T20:56:57.344Z,70.07
2018-08-22T20:59:26.515Z,71.45
2018-08-22T21:02:10.797Z,71.27
2018-08-22T21:04:40.018Z,71.42
2018-08-22T21:07:09.225Z,71.06
2018-08-22T21:09:38.409Z,72.34
2018-08-22T21:12:07.752Z,72.74
2018-08-22T21:14:36.928Z,72.30
2018-08-22T21:17:06.337Z,72.11
2018-08-22T21:19:35.545Z,72.89
2018-08-22T21:22:09.695Z,72.91
2018-08-22T21:24:39.055Z,72.72
2018-08-22T21:27:08.270Z,73.43
2018-08-22T21:29:37.443Z,73.87
2018-08-22T21:32:06.837Z,73.75
2018-08-22T21:34:36.281Z,73.24
2018-08-22T21:37:15.020Z,73.91
2018-08-22T21:39:44.097Z,74.40
2018-08-22T21:42:13.248Z,74.40
2018-08-22T21:44:43.494Z,75.20
2018-08-22T21:47:12.773Z,74.96
2018-08-22T21:49:42.038Z,75.61
2018-08-22T21:52:11.474Z,75.70
2018-08-22T21:54:41.149Z,75.28
2018-08-22T21:57:10.267Z,75.69
2018-08-22T21:59:39.411Z,76.18
2018-08-22T22:02:09.652Z,75.80
2018-08-22T22:04:42.030Z,76.04
2018-08-22T22:07:12.289Z,75.77
2018-08-22T22:09:41.333Z,76.30
2018-08-22T22:12:15.379Z,76.89
2018-08-22T22:14:45.631Z,77.26
2018-08-22T22:17:14.738Z,77.13
2018-08-22T22:19:43.973Z,76.77
2018-08-22T22:22:13.058Z,77.74
2018-08-22T22:24:52.785Z,77.50
2018-08-22T22:27:22.105Z,77.63
2018-08-22T22:29:56.783Z,77.95
2018-08-22T22:32:25.911Z,77.34
2018-08-22T22:34:54.985Z,77.71
2018-08-22T22:37:24.093Z,78.33
2018-08-22T22:39:53.247Z,78.49
2018-08-22T22:42:30.461Z,78.84
2018-08-22T22:45:00.546Z,79.16
2018-08-22T22:47:30.893Z,78.99
2018-08-22T22:50:00.886Z,80.03
2018-08-22T22:52:38.323Z,80.63
2018-08-22T22:55:08.453Z,80.21
2018-08-22T22:57:38.753Z,80.01
2018-08-22T23:00:11.137Z,80.37
2018-08-22T23:02:40.580Z,80.72
2018-08-22T23:05:10.085Z,81.17
2018-08-22T23:07:40.349Z,80.80
2018-08-22T23:10:11.881Z,81.75
2018-08-22T23:12:43.305Z,81.41
2018-08-22T23:15:14.355Z,82.23
2018-08-22T23:17:43.960Z,82.29
2018-08-22T23:20:23.434Z,82.55
2018-08-22T23:22:52.484Z,83.04
2018-08-22T23:25:25.565Z,83.08
2018-08-22T23:27:54.776Z,83.40
2018-08-22T23:30:28.909Z,83.87
2018-08-22T23:32:58.086Z,84.29
2018-08-22T23:35:29.233Z,83.39
2018-08-22T23:37:59.451Z,84.43
2018-08-22T23:40:29.749Z,84.57
2018-08-22T23:42:59.169Z,85.37
2018-08-22T23:45:28.776Z,85.83
2018-08-22T23:47:57.854Z,85.60
2018-08-22T23:50:36.823Z,85.70
2018-08-22T23:53:05.897Z,86.42
2018-08-22T23:55:34.871Z,86.43
2018-08-22T23:58:04.274Z,86.22
